Flight Track Log - Related Links

Times and Time Zones

All times are in EDT time to prevent confusion due to time zone crossing. See the AAL2011 flight status page for this flight to view local times or setup timezone preferences in your user account.

Time Position Orientation Groundspeed Altitude Reporting Facility
EDT Latitude Longitude Course Direction KTS MPH feet Rate Location/Type
Wed 11:19:37 AM 25.8020 -80.2690 90° East 179 206 300  Level FlightAware ADS-B
Wed 11:19:57 AM 25.7990 -80.2510 100° East 176 203 1,200 2,400 Climbing FlightAware ADS-B
Wed 11:20:12 AM 25.7930 -80.2370 115° Southeast 190 219 1,700 1,600 Climbing FlightAware ADS-B
Wed 11:20:42 AM 25.7820 -80.2080 113° Southeast 221 254 2,400 1,600 Climbing FlightAware ADS-B
Wed 11:21:12 AM 25.7690 -80.1740 113° Southeast 249 287 3,300 2,182 Climbing FlightAware ADS-B
Wed 11:21:37 AM 25.7580 -80.1430 111° Southeast 256 295 4,400 2,400 Climbing FlightAware ADS-B
Wed 11:22:07 AM 25.7430 -80.1080 115° Southeast 270 311 5,500 2,400 Climbing FlightAware ADS-B
Wed 11:22:32 AM 25.7330 -80.0730 108° East 281 323 6,600 2,618 Climbing FlightAware ADS-B
Wed 11:23:02 AM 25.7240 -80.0310 103° East 285 328 7,900 2,509 Climbing FlightAware ADS-B
Wed 11:23:27 AM 25.7160 -79.9970 105° East 292 336 8,900 2,486 Climbing FlightAware ADS-B
Wed 11:24:12 AM 25.7010 -79.9270 103° East 303 349 10,800 2,471 Climbing FlightAware ADS-B
Wed 11:24:52 AM 25.6870 -79.8670 105° East 312 359 12,400 2,400 Climbing FlightAware ADS-B
Wed 11:25:37 AM 25.6710 -79.7940 104° East 323 372 14,200 2,259 Climbing FlightAware ADS-B
Wed 11:26:17 AM 25.6570 -79.7310 104° East 337 388 15,600 2,175 Climbing FlightAware ADS-B
Wed 11:26:57 AM 25.6410 -79.6620 104° East 351 404 17,100 2,400 Climbing FlightAware ADS-B
Wed 11:27:42 AM 25.6230 -79.5820 104° East 354 407 19,000 1,765 Climbing FlightAware ADS-B
Wed 11:28:22 AM 25.6070 -79.5070 103° East 387 445 19,600 825 Climbing FlightAware ADS-B
Wed 11:29:02 AM 25.5880 -79.4260 105° East 420 483 20,100 1,271 Climbing FlightAware ADS-B
Wed 11:29:47 AM 25.5670 -79.3320 104° East 435 501 21,400 1,200 Climbing FlightAware ADS-B
Wed 11:30:32 AM 25.5480 -79.2450 104° East 439 505 21,900 353 Climbing FlightAware ADS-B
Wed 11:31:12 AM 25.5320 -79.1710 103° East 439 505 21,900  Level FlightAware ADS-B
Wed 11:31:52 AM 25.5170 -79.0960 102° East 439 505 21,900  Level FlightAware ADS-B
Wed 11:32:32 AM 25.5010 -79.0220 103° East 439 505 21,900  Level FlightAware ADS-B
Wed 11:33:12 AM 25.4860 -78.9470 102° East 439 505 21,900  Level FlightAware ADS-B
Wed 11:33:52 AM 25.4700 -78.8730 103° East 439 505 21,900 4,773 Level FlightAware ADS-B
Wed 11:34:40 AM 25.3542 -78.7031 103° East 462 532 28,900 4,722 Climbing Miami Center
Wed 11:35:40 AM 25.2908 -78.5733 118° Southeast 475 547 30,400 1,500 Climbing Miami Center
Wed 11:36:40 AM 25.2275 -78.4486 119° Southeast 475 547 31,900 1,400 Climbing Miami Center
Wed 11:37:40 AM 25.1661 -78.3236 118° Southeast 468 539 33,200 1,100 Climbing Miami Center
Wed 11:38:40 AM 25.1025 -78.1992 119° Southeast 468 539 34,100 850 Climbing Miami Center
Wed 11:39:40 AM 25.0367 -78.0744 120° Southeast 463 533 34,900 800 Climbing Miami Center
Wed 11:40:40 AM 24.9728 -77.9456 119° Southeast 468 539 35,700 750 Climbing Miami Center
Wed 11:41:40 AM 24.9069 -77.8167 119° Southeast 468 539 36,400 650 Climbing Miami Center
Wed 11:42:40 AM 24.8408 -77.6878 119° Southeast 473 544 37,000 300 Climbing Miami Center
Wed 11:43:40 AM 24.7744 -77.5592 120° Southeast 478 550 37,000  Level Miami Center
Wed 11:44:40 AM 24.7103 -77.4261 118° Southeast 484 557 37,000  Level Miami Center
Wed 11:45:40 AM 24.6458 -77.2978 119° Southeast 479 551 37,000  Level Miami Center
Wed 11:46:40 AM 24.5814 -77.1719 119° Southeast 474 545 37,000  Level Miami Center
Wed 11:47:40 AM 24.5169 -77.0439 119° Southeast 474 545 37,000  Level Miami Center
Wed 11:48:40 AM 24.4522 -76.9183 120° Southeast 474 545 37,000  Level Miami Center
Wed 11:49:40 AM 24.3875 -76.7903 119° Southeast 479 551 37,000  Level Miami Center
Wed 11:50:40 AM 24.3203 -76.6606 120° Southeast 479 551 37,000  Level Miami Center
Wed 11:51:40 AM 24.2511 -76.5261 119° Southeast 473 544 37,000  Level Miami Center
Wed 11:52:40 AM 24.1839 -76.3986 120° Southeast 473 544 37,000  Level Miami Center
Wed 11:53:40 AM 24.1186 -76.2692 119° Southeast 478 550 37,000  Level Miami Center
Wed 11:54:40 AM 24.0597 -76.1581 120° Southeast 478 550 37,000  Level Miami Center
Wed 11:55:40 AM 23.9922 -76.0286 120° Southeast 478 550 37,000  Level Miami Center
Wed 11:56:40 AM 23.9267 -75.9017 119° Southeast 478 550 37,000  Level Miami Center
Wed 11:57:40 AM 23.8567 -75.7797 122° Southeast 478 550 37,000  Level Miami Center
Wed 11:58:40 AM 23.7722 -75.6667 129° Southeast 478 550 37,000  Level Miami Center
Wed 11:59:40 AM 23.6858 -75.5564 131° Southeast 483 556 37,000  Level Miami Center
Wed 12:00:40 PM 23.6011 -75.4394 128° Southeast 483 556 37,000  Level Miami Center
Wed 12:01:40 PM 23.5206 -75.3203 126° Southeast 488 562 37,000  Level Miami Center
Wed 12:02:40 PM 23.4397 -75.1900 124° Southeast 488 562 37,000  Level Miami Center
Wed 12:03:40 PM 23.3733 -75.0572 119° Southeast 488 562 37,000  Level Miami Center
Wed 12:04:40 PM 23.3050 -74.9269 120° Southeast 488 562 37,000  Level Miami Center
Wed 12:05:40 PM 23.2342 -74.7969 121° Southeast 488 562 37,000  Level Miami Center
Wed 12:06:40 PM 23.1656 -74.6692 120° Southeast 489 563 37,000  Level Miami Center
Wed 12:07:40 PM 23.0967 -74.5372 120° Southeast 489 563 37,000  Level Miami Center
Wed 12:08:40 PM 23.0278 -74.4075 120° Southeast 489 563 37,000  Level Miami Center
Wed 12:09:40 PM 22.9544 -74.2781 122° Southeast 494 568 37,000  Level Miami Center
Wed 12:10:40 PM 22.8875 -74.1464 119° Southeast 494 568 37,000  Level Miami Center
Wed 12:11:40 PM 22.8183 -74.0172 120° Southeast 494 568 37,000  Level Miami Center
Wed 12:12:40 PM 22.7489 -73.8903 121° Southeast 499 574 37,000  Level Miami Center
Wed 12:13:40 PM 22.6797 -73.7636 121° Southeast 499 574 37,000  Level Miami Center
Wed 12:14:40 PM 22.6164 -73.6347 118° Southeast 494 568 37,000  Level Miami Center
Wed 12:15:40 PM 22.5447 -73.5039 121° Southeast 494 568 37,000  Level Miami Center
Wed 12:16:40 PM 22.4878 -73.3953 120° Southeast 482 555 37,000  Level Miami Center
Wed 12:17:40 PM 22.4181 -73.2667 120° Southeast 476 548 37,000  Level Miami Center
Wed 12:18:40 PM 22.3439 -73.1386 122° Southeast 489 563 37,000  Level Miami Center
Wed 12:19:40 PM 22.2781 -73.0058 118° Southeast 495 570 37,000  Level Miami Center
Wed 12:20:40 PM 22.2100 -72.8778 120° Southeast 495 570 37,000  Level Miami Center
Wed 12:21:40 PM 22.1356 -72.7478 122° Southeast 500 575 37,000  Level Miami Center
Wed 12:22:40 PM 22.0650 -72.6158 120° Southeast 500 575 37,000  Level Miami Center
Wed 12:23:40 PM 21.9928 -72.4906 122° Southeast 500 575 37,000  Level Miami Center
Wed 12:24:40 PM 21.9222 -72.3608 120° Southeast 500 575 37,000  Level Miami Center
Wed 12:25:40 PM 21.8514 -72.2314 121° Southeast 505 581 37,000  Level Miami Center
Wed 12:26:40 PM 21.7808 -72.1042 121° Southeast 505 581 37,000  Level Miami Center
Wed 12:27:40 PM 21.7078 -71.9728 121° Southeast 505 581 37,000 250 Level Miami Center
Wed 12:28:40 PM 21.6369 -71.8461 121° Southeast 505 581 37,500  Climbing Miami Center
Wed 12:29:40 PM 21.5658 -71.7172 121° Southeast 505 581 37,000 -250 Descending Miami Center
Wed 12:30:40 PM 21.4925 -71.5883 121° Southeast 505 581 37,000  Level Miami Center
Wed 12:31:40 PM 21.4217 -71.4642 121° Southeast 505 581 37,000  Level Miami Center
Wed 12:32:40 PM 21.3461 -71.3358 122° Southeast 505 581 37,000  Level Miami Center
Wed 12:33:40 PM 21.2725 -71.2075 122° Southeast 505 581 37,000  Level Miami Center
Wed 12:34:40 PM 21.2011 -71.0772 120° Southeast 505 581 37,000  Level Miami Center
Wed 12:35:40 PM 21.1269 -70.9381 120° Southeast 499 574 37,000  Level Miami Center
Wed 12:36:40 PM 21.0553 -70.8147 122° Southeast 499 574 37,000  Level Miami Center
Wed 12:37:40 PM 20.9836 -70.6892 121° Southeast 494 568 37,000  Level Miami Center
Wed 12:38:40 PM 20.9142 -70.5658 121° Southeast 488 562 37,000  Level Miami Center
Wed 12:39:40 PM 20.8422 -70.4428 122° Southeast 488 562 37,000  Level Miami Center
Wed 12:40:40 PM 20.7703 -70.3175 122° Southeast 488 562 37,000  Level Miami Center
Wed 12:41:40 PM 20.6986 -70.1947 122° Southeast 488 562 37,000  Level Miami Center
Wed 12:42:40 PM 20.6353 -70.0850 122° Southeast 483 556 37,000  Level Miami Center
Wed 12:43:40 PM 20.5653 -69.9603 121° Southeast 483 556 37,000  Level Miami Center
Wed 12:44:40 PM 20.4931 -69.8378 122° Southeast 483 556 37,000  Level Miami Center
Wed 12:45:40 PM 20.4208 -69.7111 121° Southeast 483 556 37,000  Level Miami Center
Wed 12:46:40 PM 20.3464 -69.5892 123° Southeast 488 562 37,000  Level Miami Center
Wed 12:47:40 PM 20.2758 -69.4628 121° Southeast 488 562 37,000  Level Miami Center
Wed 12:48:40 PM 20.2011 -69.3386 123° Southeast 488 562 37,000  Level Miami Center
Wed 12:49:40 PM 20.1306 -69.2169 122° Southeast 488 562 37,000  Level Miami Center
Wed 12:50:40 PM 20.0581 -69.0931 122° Southeast 488 562 37,000  Level Miami Center
Wed 12:51:40 PM 19.9853 -68.9717 123° Southeast 488 562 37,000  Level Miami Center
Wed 12:52:40 PM 19.9144 -68.8458 121° Southeast 488 562 37,000  Level Miami Center
Wed 12:58:12 PM 19.5730 -68.1050 121° Southeast 494 568 37,000  Level FlightAware ADS-B
Wed 12:58:57 PM 19.5280 -68.0060 116° Southeast 494 568 37,000  Level FlightAware ADS-B
Wed 12:59:37 PM 19.4900 -67.9210 115° Southeast 495 570 37,000  Level FlightAware ADS-B
Wed 01:00:22 PM 19.4460 -67.8230 115° Southeast 495 570 37,000  Level FlightAware ADS-B
Wed 01:01:07 PM 19.4040 -67.7290 115° Southeast 496 571 37,000  Level FlightAware ADS-B
Wed 01:01:42 PM 19.3660 -67.6470 116° Southeast 496 571 37,000  Level FlightAware ADS-B
Wed 01:02:27 PM 19.3210 -67.5460 115° Southeast 496 571 37,000  Level FlightAware ADS-B
Wed 01:03:12 PM 19.2770 -67.4490 116° Southeast 497 572 37,000  Level FlightAware ADS-B
Wed 01:03:52 PM 19.2370 -67.3620 116° Southeast 497 572 37,000  Level FlightAware ADS-B
Wed 01:04:37 PM 19.1910 -67.2610 116° Southeast 497 572 37,000  Level FlightAware ADS-B
Wed 01:05:17 PM 19.1510 -67.1720 115° Southeast 499 574 37,000  Level FlightAware ADS-B
Wed 01:05:57 PM 19.1100 -67.0830 116° Southeast 500 575 37,000  Level FlightAware ADS-B
Wed 01:06:37 PM 19.0710 -66.9970 116° Southeast 501 577 37,000  Level FlightAware ADS-B
Wed 01:07:22 PM 19.0260 -66.8990 116° Southeast 501 577 37,000  Level FlightAware ADS-B
Wed 01:08:07 PM 18.9800 -66.7980 116° Southeast 501 577 37,000  Level FlightAware ADS-B
Wed 01:08:47 PM 18.9390 -66.7090 116° Southeast 500 575 37,000  Level FlightAware ADS-B
Wed 01:09:27 PM 18.8990 -66.6220 116° Southeast 499 574 37,000  Level FlightAware ADS-B
Wed 01:10:07 PM 18.8580 -66.5340 116° Southeast 499 574 37,000  Level FlightAware ADS-B
Wed 01:10:52 PM 18.8140 -66.4380 116° Southeast 499 574 37,000  Level FlightAware ADS-B
Wed 01:11:37 PM 18.7670 -66.3360 116° Southeast 500 575 37,000  Level FlightAware ADS-B
Wed 01:12:17 PM 18.7280 -66.2510 116° Southeast 500 575 37,000  Level FlightAware ADS-B
Wed 01:12:57 PM 18.6860 -66.1610 116° Southeast 499 574 37,000  Level FlightAware ADS-B
Wed 01:13:42 PM 18.6410 -66.0650 116° Southeast 498 573 37,000  Level FlightAware ADS-B
Wed 01:14:22 PM 18.6010 -65.9780 116° Southeast 497 572 37,000  Level FlightAware ADS-B
Wed 01:15:02 PM 18.5600 -65.8900 116° Southeast 497 572 37,000  Level FlightAware ADS-B
Wed 01:15:47 PM 18.5150 -65.7930 116° Southeast 495 570 37,000  Level FlightAware ADS-B
Wed 01:16:27 PM 18.4750 -65.7090 117° Southeast 495 570 37,000  Level FlightAware ADS-B
Wed 01:17:12 PM 18.4280 -65.6080 116° Southeast 493 567 37,000  Level FlightAware ADS-B
Wed 01:17:52 PM 18.3890 -65.5230 116° Southeast 493 567 37,000  Level FlightAware ADS-B
Wed 01:18:37 PM 18.3440 -65.4270 116° Southeast 493 567 37,000  Level FlightAware ADS-B
Wed 01:19:17 PM 18.3030 -65.3410 117° Southeast 493 567 37,000  Level FlightAware ADS-B
Wed 01:19:57 PM 18.2630 -65.2560 116° Southeast 493 567 37,000  Level FlightAware ADS-B
Wed 01:20:42 PM 18.2180 -65.1610 116° Southeast 493 567 37,000  Level FlightAware ADS-B
Wed 01:21:22 PM 18.1800 -65.0780 116° Southeast 494 568 37,000  Level FlightAware ADS-B
Wed 01:22:02 PM 18.1460 -65.0050 116° Southeast 494 568 37,000  Level FlightAware ADS-B
Wed 01:22:42 PM 18.1120 -64.9310 116° Southeast 494 568 37,000  Level FlightAware ADS-B
Wed 01:23:22 PM 18.0780 -64.8580 116° Southeast 494 568 37,000  Level FlightAware ADS-B
Wed 01:24:12 PM 18.0350 -64.7660 116° Southeast 494 568 37,000  Level FlightAware ADS-B
Wed 01:24:52 PM 18.0010 -64.6930 116° Southeast 494 568 37,000  Level FlightAware ADS-B
Wed 01:25:32 PM 17.9670 -64.6190 116° Southeast 494 568 37,000  Level FlightAware ADS-B
Wed 01:26:12 PM 17.9330 -64.5460 116° Southeast 494 568 37,000  Level FlightAware ADS-B
Wed 01:26:52 PM 17.8990 -64.4720 116° Southeast 494 568 37,000  Level FlightAware ADS-B
Wed 01:27:42 PM 17.8560 -64.3810 116° Southeast 494 568 37,000  Level FlightAware ADS-B
Wed 01:28:22 PM 17.8220 -64.3070 116° Southeast 494 568 37,000  Level FlightAware ADS-B
Wed 01:29:02 PM 17.7880 -64.2340 116° Southeast 494 568 37,000  Level FlightAware ADS-B
Wed 01:29:42 PM 17.7540 -64.1610 116° Southeast 494 568 37,000  Level FlightAware ADS-B
Wed 01:30:22 PM 17.7200 -64.0870 116° Southeast 494 568 37,000 -15,000 Level FlightAware ADS-B
Wed 01:30:50 PM 17.5833 -63.8500 116° Southeast 450 518 20,000 -12,944 Descending San Juan Center
Wed 01:31:51 PM 17.5333 -63.7500 118° Southeast 430 495 17,800 -2,083 Descending San Juan Center
Wed 01:32:51 PM 17.4833 -63.6333 114° Southeast 410 472 15,800 -2,050 Descending San Juan Center
Wed 01:33:51 PM 17.4667 -63.5167 99° East 390 449 13,700 -2,000 Descending San Juan Center
Wed 01:34:51 PM 17.4333 -63.4167 109° East 370 426 11,800 -1,636 Descending San Juan Center
Wed 01:35:52 PM 17.4167 -63.3167 100° East 350 403 10,400 -1,140 Descending San Juan Center
Wed 01:36:52 PM 17.4000 -63.2167 100° East 310 357 9,500 -1,100 Descending San Juan Center
Wed 01:37:52 PM 17.3667 -63.1333 113° Southeast 300 345 8,200 -1,339 Descending San Juan Center
Wed 01:38:53 PM 17.3500 -63.0500 102° East 280 322 6,800 -1,091 Descending San Juan Center
Wed 01:39:53 PM 17.3500 -63.0000 90° East 250 288 6,000 -400 Descending San Juan Center
Wed 01:40:53 PM 17.3000 -62.9500 136° Southeast 190 219 6,000  Level San Juan Center

Login

Don't have an account? Register now (free) for customized features, flight alerts, and more!